createdAt,value
2022-08-02T04:01:11.839Z,100.00
2022-08-02T04:03:40.629Z,100.00
2022-08-02T04:06:13.699Z,100.00
2022-08-02T04:08:45.579Z,100.00
2022-08-02T04:11:32.475Z,100.00
2022-08-02T04:14:13.918Z,100.00
2022-08-02T04:17:13.994Z,100.00
2022-08-02T04:22:51.238Z,100.00
2022-08-02T04:25:35.564Z,100.00
2022-08-02T04:28:16.905Z,100.00
2022-08-02T04:30:55.056Z,100.00
2022-08-02T04:33:32.077Z,100.00
2022-08-02T04:36:12.802Z,100.00
2022-08-02T04:38:42.427Z,100.00
2022-08-02T04:41:22.487Z,100.00
2022-08-02T04:43:52.814Z,100.00
2022-08-02T04:46:35.098Z,100.00
2022-08-02T04:49:08.710Z,100.00
2022-08-02T04:51:39.244Z,100.00
2022-08-02T04:54:16.483Z,100.00
2022-08-02T04:56:51.576Z,100.00
2022-08-02T04:59:19.890Z,100.00
2022-08-02T05:01:50.532Z,100.00
2022-08-02T05:04:29.992Z,100.00
2022-08-02T05:07:06.388Z,100.00
2022-08-02T05:09:43.254Z,100.00
2022-08-02T05:12:14.083Z,100.00
2022-08-02T05:14:44.539Z,100.00
2022-08-02T05:17:13.979Z,100.00
2022-08-02T05:19:45.841Z,100.00
2022-08-02T05:22:14.561Z,100.00
2022-08-02T05:24:46.031Z,100.00
2022-08-02T05:27:21.108Z,100.00
2022-08-02T05:29:54.032Z,100.00
2022-08-02T05:32:25.933Z,100.00
2022-08-02T05:35:00.083Z,100.00
2022-08-02T05:37:32.265Z,100.00
2022-08-02T05:40:04.878Z,100.00
2022-08-02T05:42:52.367Z,100.00
2022-08-02T05:45:24.467Z,100.00
2022-08-02T05:47:55.689Z,100.00
2022-08-02T05:50:28.768Z,100.00
2022-08-02T05:53:14.496Z,100.00
2022-08-02T05:55:51.298Z,100.00
2022-08-02T05:58:34.340Z,100.00
2022-08-02T06:01:13.011Z,100.00
2022-08-02T06:03:51.490Z,100.00
2022-08-02T06:06:28.170Z,100.00
2022-08-02T06:09:00.907Z,100.00
2022-08-02T06:11:36.796Z,100.00
2022-08-02T06:14:06.726Z,100.00
2022-08-02T06:16:42.074Z,100.00
2022-08-02T06:19:15.766Z,100.00
2022-08-02T06:22:35.141Z,100.00
2022-08-02T06:25:06.642Z,100.00
2022-08-02T06:28:10.293Z,100.00
2022-08-02T06:30:59.531Z,100.00
2022-08-02T06:33:40.584Z,100.00
2022-08-02T06:36:36.676Z,100.00
2022-08-02T06:42:36.598Z,100.00
2022-08-02T06:48:09.823Z,100.00
2022-08-02T06:50:42.919Z,100.00
2022-08-02T06:53:13.681Z,100.00
2022-08-02T06:55:46.848Z,100.00
2022-08-02T06:58:17.637Z,100.00
2022-08-02T07:00:48.071Z,100.00
2022-08-02T07:03:16.442Z,100.00
2022-08-02T07:05:49.045Z,100.00
2022-08-02T07:08:17.498Z,100.00
2022-08-02T07:10:47.726Z,100.00
2022-08-02T07:13:16.024Z,100.00
2022-08-02T07:15:49.433Z,100.00
2022-08-02T07:18:18.530Z,100.00
2022-08-02T07:20:47.107Z,100.00
2022-08-02T07:23:17.528Z,100.00
2022-08-02T07:26:01.727Z,100.00
2022-08-02T07:28:38.476Z,100.00
2022-08-02T07:31:07.314Z,100.00
2022-08-02T07:33:38.432Z,100.00
2022-08-02T07:36:09.768Z,100.00
2022-08-02T07:38:44.904Z,100.00
2022-08-02T07:41:16.497Z,100.00
2022-08-02T07:43:44.750Z,100.00
2022-08-02T07:46:13.995Z,100.00
2022-08-02T07:48:41.973Z,100.00
2022-08-02T07:51:12.923Z,100.00
2022-08-02T07:53:50.697Z,100.00
2022-08-02T07:56:21.837Z,100.00
2022-08-02T07:58:54.168Z,100.00
2022-08-02T08:01:22.520Z,100.00
2022-08-02T08:03:51.550Z,100.00
2022-08-02T08:06:19.923Z,100.00
2022-08-02T08:08:57.033Z,100.00
2022-08-02T08:11:26.599Z,100.00
2022-08-02T08:13:55.332Z,100.00
2022-08-02T08:16:23.402Z,100.00
2022-08-02T08:18:51.501Z,100.00
2022-08-02T08:21:19.588Z,100.00
2022-08-02T08:23:49.798Z,100.00
2022-08-02T08:26:18.357Z,100.00
2022-08-02T08:28:48.754Z,100.00
2022-08-02T08:31:19.177Z,99.49
2022-08-02T08:33:46.895Z,98.93
2022-08-02T08:36:17.955Z,99.32
2022-08-02T08:38:51.741Z,99.30
2022-08-02T08:41:21.623Z,100.00
2022-08-02T08:43:53.500Z,98.35
2022-08-02T08:46:29.059Z,98.19
2022-08-02T08:49:02.906Z,98.35
2022-08-02T08:51:35.873Z,96.77
2022-08-02T08:54:05.588Z,97.48
2022-08-02T08:56:39.069Z,97.19
2022-08-02T08:59:08.940Z,97.18
2022-08-02T09:01:50.487Z,97.31
2022-08-02T09:04:21.503Z,97.86
2022-08-02T09:06:52.789Z,98.57
2022-08-02T09:09:22.117Z,93.51
2022-08-02T09:11:50.213Z,86.49
2022-08-02T09:14:32.640Z,84.79
2022-08-02T09:17:15.534Z,84.93
2022-08-02T09:19:46.327Z,83.94
2022-08-02T09:22:16.825Z,84.04
2022-08-02T09:24:49.419Z,82.07
2022-08-02T09:27:22.126Z,83.12
2022-08-02T09:30:12.531Z,84.29
2022-08-02T09:32:48.117Z,85.66
2022-08-02T09:36:07.090Z,84.81
2022-08-02T09:38:26.470Z,84.45
2022-08-02T09:41:05.822Z,84.11
2022-08-02T09:43:51.886Z,82.16
2022-08-02T09:46:39.118Z,80.18
2022-08-02T09:49:14.060Z,80.22
2022-08-02T09:51:52.393Z,79.66
2022-08-02T09:54:23.435Z,79.12
2022-08-02T09:56:53.759Z,80.52
2022-08-02T09:59:35.754Z,76.91
2022-08-02T10:02:14.812Z,77.24
2022-08-02T10:04:53.458Z,76.57
2022-08-02T10:07:24.535Z,76.37
2022-08-02T10:09:59.409Z,75.31
2022-08-02T10:12:30.309Z,74.62
2022-08-02T10:15:14.200Z,73.61
2022-08-02T10:17:50.444Z,75.26
2022-08-02T10:20:23.264Z,72.91
2022-08-02T10:22:58.169Z,71.48
2022-08-02T10:25:31.304Z,71.59
2022-08-02T10:28:06.405Z,73.50
2022-08-02T10:30:35.872Z,72.72
2022-08-02T10:33:16.494Z,66.60
2022-08-02T10:35:50.267Z,65.04
2022-08-02T10:38:37.656Z,65.68
2022-08-02T10:41:12.082Z,63.78
2022-08-02T10:43:47.016Z,62.37
2022-08-02T10:46:34.640Z,61.46
2022-08-02T10:49:38.121Z,62.67
2022-08-02T10:52:09.223Z,61.40
2022-08-02T10:54:44.469Z,61.04
2022-08-02T10:57:21.441Z,62.39
2022-08-02T11:00:04.584Z,64.03
2022-08-02T11:02:53.151Z,63.98
2022-08-02T11:05:42.751Z,64.81
2022-08-02T11:08:20.912Z,64.53
2022-08-02T11:10:59.342Z,65.39
2022-08-02T11:13:39.308Z,63.75
2022-08-02T11:19:18.891Z,62.47
2022-08-02T11:22:22.301Z,60.50
2022-08-02T11:25:00.717Z,61.80
2022-08-02T11:27:32.313Z,60.27
2022-08-02T11:30:32.028Z,59.60
2022-08-02T11:33:05.912Z,59.80
2022-08-02T11:35:48.774Z,59.30
2022-08-02T11:38:35.096Z,58.16
2022-08-02T11:47:41.162Z,58.08
2022-08-02T11:50:31.598Z,57.38
2022-08-02T11:53:05.449Z,57.51
2022-08-02T11:56:12.829Z,53.38
2022-08-02T11:59:01.516Z,51.83
2022-08-02T12:01:45.144Z,50.36
2022-08-02T12:04:22.690Z,51.07
2022-08-02T12:07:09.361Z,51.80
2022-08-02T12:09:53.225Z,51.73
2022-08-02T12:12:25.140Z,49.90
2022-08-02T12:15:36.778Z,49.66
2022-08-02T12:18:35.232Z,49.38
2022-08-02T12:21:07.946Z,49.49
2022-08-02T12:24:01.020Z,48.54
2022-08-02T12:26:40.991Z,48.67
2022-08-02T12:29:16.318Z,47.38
2022-08-02T12:32:14.802Z,48.62
2022-08-02T12:34:45.871Z,47.91
2022-08-02T12:37:29.911Z,48.00
2022-08-02T12:40:02.355Z,49.27
2022-08-02T12:43:01.596Z,48.26
2022-08-02T12:46:07.415Z,48.87
2022-08-02T12:49:02.390Z,48.93
2022-08-02T12:51:58.999Z,48.85
2022-08-02T12:54:41.220Z,48.12
2022-08-02T12:57:18.845Z,47.42
2022-08-02T12:59:59.791Z,47.96
2022-08-02T13:02:35.088Z,48.68
2022-08-02T13:05:06.394Z,47.77
2022-08-02T13:07:37.874Z,47.90
2022-08-02T13:16:02.058Z,48.52
2022-08-02T13:18:46.902Z,46.70
2022-08-02T13:21:39.817Z,47.80
2022-08-02T13:24:32.744Z,46.46
2022-08-02T13:27:05.250Z,46.15
2022-08-02T13:30:06.015Z,46.14
2022-08-02T13:32:52.529Z,45.16
2022-08-02T13:35:36.139Z,45.55
2022-08-02T13:38:11.397Z,46.51
2022-08-02T13:41:04.407Z,45.97
2022-08-02T13:43:57.162Z,45.76
2022-08-02T13:46:38.541Z,45.71
2022-08-02T13:49:51.290Z,46.23
2022-08-02T13:52:28.070Z,46.71
2022-08-02T13:55:01.945Z,46.08
2022-08-02T13:57:39.264Z,44.88
2022-08-02T14:00:14.096Z,44.34
2022-08-02T14:02:54.230Z,44.08
2022-08-02T14:05:54.133Z,43.84
2022-08-02T14:08:37.325Z,44.63
2022-08-02T14:11:07.105Z,46.57
2022-08-02T14:13:36.459Z,44.19
2022-08-02T14:16:08.769Z,44.00
2022-08-02T14:18:52.405Z,44.28
2022-08-02T14:21:20.320Z,44.16
2022-08-02T14:23:51.111Z,43.28
2022-08-02T14:26:32.006Z,43.79
2022-08-02T14:29:18.920Z,43.81
2022-08-02T14:31:47.129Z,44.44
2022-08-02T14:34:16.358Z,44.08
2022-08-02T14:36:45.207Z,44.39
2022-08-02T14:39:22.586Z,45.03
2022-08-02T14:41:58.284Z,44.56
2022-08-02T14:44:30.682Z,43.73
2022-08-02T14:46:59.553Z,43.83
2022-08-02T14:49:45.018Z,44.24
2022-08-02T14:52:15.555Z,43.57
2022-08-02T14:54:47.763Z,43.98
2022-08-02T14:57:20.783Z,44.29
2022-08-02T14:59:53.773Z,43.22
2022-08-02T15:02:28.056Z,41.14
2022-08-02T15:05:00.907Z,40.30
2022-08-02T15:07:45.359Z,41.54
2022-08-02T15:10:36.885Z,40.92
2022-08-02T15:13:07.968Z,40.56
2022-08-02T15:15:40.509Z,41.09
2022-08-02T15:18:20.516Z,39.53
2022-08-02T15:20:57.790Z,39.90
2022-08-02T15:23:37.591Z,39.87
2022-08-02T15:26:14.614Z,39.85
2022-08-02T15:28:45.112Z,38.89
2022-08-02T15:31:33.496Z,39.42
2022-08-02T15:34:02.652Z,40.64
2022-08-02T15:36:35.797Z,40.79
2022-08-02T15:39:14.182Z,41.50
2022-08-02T15:41:44.628Z,41.32
2022-08-02T15:44:22.575Z,41.44
2022-08-02T15:49:41.019Z,40.94
2022-08-02T15:52:21.019Z,41.73
2022-08-02T15:54:56.455Z,41.49
2022-08-02T15:57:43.347Z,41.93
2022-08-02T16:00:17.914Z,41.43
2022-08-02T16:05:33.616Z,42.55
2022-08-02T16:08:05.413Z,43.48
2022-08-02T16:10:37.223Z,43.90
2022-08-02T16:13:32.446Z,43.67
2022-08-02T16:16:00.325Z,44.61
2022-08-02T16:18:28.438Z,44.27
2022-08-02T16:20:56.535Z,45.37
2022-08-02T16:24:01.843Z,44.60
2022-08-02T16:26:25.973Z,47.01
2022-08-02T16:28:55.533Z,45.21
2022-08-02T16:31:25.736Z,45.02
2022-08-02T16:33:57.172Z,45.03
2022-08-02T16:36:27.876Z,45.38
2022-08-02T16:38:57.341Z,45.89
2022-08-02T16:41:45.495Z,46.36
2022-08-02T16:44:29.887Z,46.40
2022-08-02T16:47:01.438Z,46.50
2022-08-02T16:52:28.632Z,46.40
2022-08-02T16:54:58.128Z,45.87
2022-08-02T16:57:42.740Z,46.79
2022-08-02T17:00:15.572Z,46.73
2022-08-02T17:02:48.066Z,47.07
2022-08-02T17:05:17.487Z,47.47
2022-08-02T17:08:16.645Z,48.05
2022-08-02T17:10:37.180Z,48.07
2022-08-02T17:13:14.533Z,47.88
2022-08-02T17:16:01.089Z,48.30
2022-08-02T17:18:34.426Z,49.72
2022-08-02T17:21:10.488Z,51.05
2022-08-02T17:26:28.584Z,54.51
2022-08-02T17:29:15.598Z,54.08
2022-08-02T17:32:02.892Z,52.77
2022-08-02T17:34:35.759Z,52.88
2022-08-02T17:37:11.331Z,53.75
2022-08-02T17:39:43.896Z,53.84
2022-08-02T17:42:23.125Z,51.63
2022-08-02T17:44:55.259Z,51.18
2022-08-02T17:47:42.260Z,50.82
2022-08-02T17:50:13.753Z,53.70
2022-08-02T17:52:50.520Z,53.69
2022-08-02T17:55:23.283Z,55.32
2022-08-02T17:57:55.543Z,55.38
2022-08-02T18:00:30.454Z,54.68
2022-08-02T18:03:07.938Z,54.01
2022-08-02T18:05:53.603Z,53.74
2022-08-02T18:08:24.375Z,51.02
2022-08-02T18:10:53.428Z,50.76
2022-08-02T18:13:21.914Z,50.27
2022-08-02T18:15:50.588Z,50.42
2022-08-02T18:18:29.344Z,49.45
2022-08-02T18:20:58.223Z,50.09
2022-08-02T18:23:27.945Z,50.01
2022-08-02T18:25:57.944Z,50.04
2022-08-02T18:28:27.642Z,50.14
2022-08-02T18:30:55.570Z,50.62
2022-08-02T18:33:55.855Z,50.62
2022-08-02T18:36:24.791Z,49.68
2022-08-02T18:38:55.505Z,50.73
2022-08-02T18:41:28.656Z,50.83
2022-08-02T18:44:02.856Z,51.26
2022-08-02T18:46:34.281Z,51.49
2022-08-02T18:49:14.992Z,51.74
2022-08-02T18:51:45.228Z,51.02
2022-08-02T18:54:16.407Z,50.88
2022-08-02T18:56:56.013Z,51.18
2022-08-02T18:59:26.851Z,51.84
2022-08-02T19:01:57.487Z,51.81
2022-08-02T19:04:28.813Z,52.71
2022-08-02T19:07:08.212Z,52.54
2022-08-02T19:09:40.234Z,52.48
2022-08-02T19:12:12.393Z,52.30
2022-08-02T19:14:45.426Z,53.01
2022-08-02T19:17:55.714Z,52.86
2022-08-02T19:20:19.550Z,53.10
2022-08-02T19:22:53.747Z,53.53
2022-08-02T19:25:27.646Z,53.83
2022-08-02T19:28:01.418Z,54.51
2022-08-02T19:30:29.674Z,55.07
2022-08-02T19:33:09.299Z,55.66
2022-08-02T19:38:38.541Z,57.10
2022-08-02T19:41:10.186Z,57.35
2022-08-02T19:44:22.841Z,58.19
2022-08-02T19:46:31.119Z,58.88
2022-08-02T19:49:01.003Z,60.10
2022-08-02T19:51:55.471Z,60.97
2022-08-02T19:54:53.967Z,62.35
2022-08-02T19:57:13.750Z,62.39
2022-08-02T19:59:47.676Z,63.16
2022-08-02T20:02:18.519Z,63.42
2022-08-02T20:04:50.214Z,63.52
2022-08-02T20:07:54.711Z,62.56
2022-08-02T20:10:26.526Z,63.07
2022-08-02T20:12:58.110Z,63.92
2022-08-02T20:15:56.348Z,63.94
2022-08-02T20:18:15.862Z,64.46
2022-08-02T20:20:54.629Z,63.31
2022-08-02T20:23:34.254Z,65.05
2022-08-02T20:26:26.506Z,65.47
2022-08-02T20:28:56.905Z,65.93
2022-08-02T20:31:30.757Z,65.34
2022-08-02T20:34:01.668Z,65.41
2022-08-02T20:36:32.970Z,65.52
2022-08-02T20:39:02.204Z,66.48
2022-08-02T20:41:37.228Z,66.65
2022-08-02T20:44:16.087Z,66.31
2022-08-02T20:46:59.901Z,65.92
2022-08-02T20:49:40.811Z,65.83
2022-08-02T20:52:36.982Z,66.61
2022-08-02T20:59:15.543Z,67.60
2022-08-02T21:01:58.569Z,68.12
2022-08-02T21:04:41.218Z,68.10
2022-08-02T21:07:18.013Z,68.55
2022-08-02T21:10:07.507Z,68.61
2022-08-02T21:12:49.157Z,68.61
2022-08-02T21:15:40.941Z,68.95
2022-08-02T21:18:33.281Z,69.13
2022-08-02T21:24:26.785Z,70.01
2022-08-02T21:27:52.858Z,69.96
2022-08-02T21:34:01.537Z,69.72
2022-08-02T21:52:35.124Z,71.08
2022-08-02T21:55:02.999Z,71.59
2022-08-02T21:57:34.605Z,71.75
2022-08-02T22:00:02.993Z,71.59
2022-08-02T22:02:31.291Z,72.41
2022-08-02T22:04:59.148Z,72.02
2022-08-02T22:07:30.359Z,72.24
2022-08-02T22:10:09.892Z,72.89
2022-08-02T22:12:37.699Z,72.63
2022-08-02T22:15:10.262Z,73.11
2022-08-02T22:17:51.317Z,73.21
2022-08-02T22:20:21.699Z,74.23
2022-08-02T22:22:50.933Z,73.69
2022-08-02T22:25:36.907Z,74.46
2022-08-02T22:28:37.643Z,73.70
2022-08-02T22:30:54.327Z,74.08
2022-08-02T22:33:42.401Z,73.53
2022-08-02T22:36:15.542Z,73.14
2022-08-02T22:38:44.630Z,73.07
2022-08-02T22:41:14.866Z,72.92
2022-08-02T22:43:43.505Z,73.47
2022-08-02T22:46:15.432Z,73.06
2022-08-02T22:48:44.357Z,73.57
2022-08-02T22:51:13.629Z,73.37
2022-08-02T22:53:41.290Z,74.34
2022-08-02T22:56:09.391Z,74.78
2022-08-02T22:58:35.065Z,46.52
2022-08-02T22:58:38.244Z,52.07
